Time;durP1;ratioP1;P1;durP2;ratioP2;P2;SDS_P1;SDS_P2;PMS_P1;PMS_P2;Temp;Humidity;BMP_temperature;BMP_pressure;BME280_temperature;BME280_humidity;BME280_pressure;Samples;Min_cycle;Max_cycle;Signal;HPM_P1;HPM_P2
2022/11/23 00:01:33;;;;;;;14.93;8.65;;;7.90;99.90;;;;;;5114029;28;20043;-69
2022/11/23 00:04:12;;;;;;;15.40;8.68;;;7.90;99.90;;;;;;5112836;28;20050;-69
2022/11/23 00:06:38;;;;;;;12.90;8.80;;;7.90;99.90;;;;;;5113919;28;20051;-69
2022/11/23 00:09:04;;;;;;;15.13;8.85;;;7.90;99.90;;;;;;5113783;28;20051;-69
2022/11/23 00:11:32;;;;;;;13.43;9.25;;;7.90;99.90;;;;;;5113829;28;20043;-69
2022/11/23 00:13:57;;;;;;;15.57;8.82;;;7.90;99.90;;;;;;5114277;28;20040;-69
2022/11/23 00:16:26;;;;;;;14.23;8.75;;;7.90;99.90;;;;;;5113736;28;20388;-69
2022/11/23 00:19:01;;;;;;;16.58;9.27;;;7.90;99.90;;;;;;5113668;28;20044;-69
2022/11/23 00:21:30;;;;;;;16.27;10.00;;;8.00;99.90;;;;;;5113633;28;20515;-69
2022/11/23 00:23:56;;;;;;;14.38;9.15;;;8.00;99.90;;;;;;5113787;28;20039;-69
2022/11/23 00:26:22;;;;;;;15.80;9.63;;;8.00;99.90;;;;;;5113519;28;20518;-69
2022/11/23 00:28:47;;;;;;;12.65;9.10;;;8.00;99.90;;;;;;5113431;28;20120;-69
2022/11/23 00:31:15;;;;;;;19.60;9.63;;;8.00;99.90;;;;;;5113432;28;20039;-69
2022/11/23 00:33:41;;;;;;;16.92;9.13;;;8.00;99.90;;;;;;5113262;28;20031;-69
2022/11/23 00:36:10;;;;;;;13.30;8.73;;;8.00;99.90;;;;;;5113370;28;20042;-69
2022/11/23 00:38:36;;;;;;;13.30;8.80;;;8.00;99.90;;;;;;5113274;28;20047;-69
2022/11/23 00:41:05;;;;;;;15.88;9.88;;;8.00;99.90;;;;;;5113246;28;20040;-69
2022/11/23 00:43:31;;;;;;;14.93;8.57;;;8.00;99.90;;;;;;5112979;28;20043;-69
2022/11/23 00:46:22;;;;;;;16.65;9.02;;;8.00;99.90;;;;;;5113129;28;20035;-69
2022/11/23 00:48:49;;;;;;;13.07;8.63;;;8.00;99.90;;;;;;5114880;28;20088;-69
2022/11/23 00:51:18;;;;;;;13.02;8.70;;;8.00;99.90;;;;;;5112980;28;20069;-69
2022/11/23 00:53:44;;;;;;;16.92;8.63;;;8.00;99.90;;;;;;5114168;28;20127;-69
2022/11/23 00:56:10;;;;;;;15.82;9.00;;;8.00;99.90;;;;;;5112918;28;20063;-69
2022/11/23 00:58:39;;;;;;;13.00;8.63;;;8.00;99.90;;;;;;5112873;28;20122;-69
2022/11/23 01:01:13;;;;;;;13.40;8.52;;;8.00;99.90;;;;;;5112849;28;20123;-69
2022/11/23 01:03:43;;;;;;;13.05;7.65;;;8.00;99.90;;;;;;5112830;28;20054;-69
2022/11/23 01:06:11;;;;;;;15.88;9.07;;;8.00;99.90;;;;;;5112806;28;20046;-69
2022/11/23 01:08:37;;;;;;;14.57;8.82;;;8.00;99.90;;;;;;5112649;28;20039;-69
2022/11/23 01:11:06;;;;;;;13.98;8.60;;;8.00;99.90;;;;;;5112674;28;20054;-69
2022/11/23 01:13:32;;;;;;;14.23;9.75;;;8.00;99.90;;;;;;5112180;28;20040;-69
2022/11/23 01:15:58;;;;;;;13.65;8.35;;;8.00;99.90;;;;;;5112868;28;20034;-69
2022/11/23 01:18:24;;;;;;;13.85;9.07;;;8.00;99.90;;;;;;5112590;28;20059;-69
2022/11/23 01:20:50;;;;;;;14.63;8.52;;;8.00;99.90;;;;;;5112794;28;20270;-69
2022/11/23 01:23:16;;;;;;;17.20;9.00;;;8.10;99.90;;;;;;5112462;28;20496;-69
2022/11/23 01:25:41;;;;;;;17.63;8.88;;;8.00;99.90;;;;;;5112449;28;20126;-69
2022/11/23 01:28:07;;;;;;;15.73;8.55;;;8.10;99.90;;;;;;5112411;28;20035;-69
2022/11/23 01:30:35;;;;;;;15.98;8.75;;;8.00;99.90;;;;;;5112329;28;20040;-69
2022/11/23 01:33:02;;;;;;;15.32;8.98;;;8.10;99.90;;;;;;5112615;28;20043;-69
2022/11/23 01:35:27;;;;;;;15.98;9.20;;;8.10;99.90;;;;;;5112611;28;20043;-69
2022/11/23 01:37:53;;;;;;;19.00;10.45;;;8.10;99.90;;;;;;5112327;28;20496;-69
2022/11/23 01:40:19;;;;;;;14.15;9.55;;;8.10;99.90;;;;;;5112368;28;20055;-69
2022/11/23 01:42:57;;;;;;;16.52;9.48;;;8.10;99.90;;;;;;5112174;28;20040;-69
2022/11/23 01:45:38;;;;;;;14.40;9.63;;;8.10;99.90;;;;;;5112333;28;20071;-69
2022/11/23 01:48:10;;;;;;;17.17;8.85;;;8.10;99.90;;;;;;5112171;28;20090;-69
2022/11/23 01:50:36;;;;;;;13.15;8.68;;;8.10;99.90;;;;;;5112516;28;20043;-69
2022/11/23 01:53:01;;;;;;;13.60;8.60;;;8.10;99.90;;;;;;5112182;28;20028;-69
2022/11/23 01:55:27;;;;;;;12.13;8.43;;;8.10;99.90;;;;;;5112473;28;20051;-69
2022/11/23 01:57:53;;;;;;;15.93;9.68;;;8.10;99.90;;;;;;5112164;28;20130;-69
2022/11/23 02:00:19;;;;;;;15.40;8.95;;;8.10;99.90;;;;;;5112187;28;20074;-69
2022/11/23 02:02:52;;;;;;;15.32;8.30;;;8.10;99.90;;;;;;5112337;28;20063;-69
2022/11/23 02:05:20;;;;;;;16.35;9.63;;;8.10;99.90;;;;;;5112358;28;20043;-69
2022/11/23 02:07:48;;;;;;;15.00;7.85;;;8.10;99.90;;;;;;5111995;28;20036;-69
2022/11/23 02:10:14;;;;;;;17.63;8.93;;;8.10;99.90;;;;;;5112030;28;20089;-69
2022/11/23 02:12:40;;;;;;;19.23;10.65;;;8.10;99.90;;;;;;5111977;28;20051;-69
2022/11/23 02:15:06;;;;;;;18.20;10.98;;;8.10;99.90;;;;;;5111975;28;20035;-69
2022/11/23 02:17:33;;;;;;;15.75;9.57;;;8.10;99.90;;;;;;5111936;28;20040;-69
2022/11/23 02:20:04;;;;;;;16.13;9.55;;;8.10;99.90;;;;;;5112022;28;20047;-69
2022/11/23 02:22:55;;;;;;;16.38;10.75;;;8.10;99.90;;;;;;5111874;28;20088;-69
2022/11/23 02:25:55;;;;;;;15.27;9.55;;;8.10;99.90;;;;;;5111940;28;20048;-69
2022/11/23 02:28:25;;;;;;;13.70;10.07;;;8.10;99.90;;;;;;5110870;28;20086;-69
2022/11/23 02:30:53;;;;;;;14.50;10.88;;;8.10;99.90;;;;;;5115762;28;20048;-69
2022/11/23 02:33:18;;;;;;;15.52;10.88;;;8.10;99.90;;;;;;5115947;28;20050;-69
2022/11/23 02:36:30;;;;;;;14.30;10.45;;;8.10;99.90;;;;;;5115924;28;20043;-70
2022/11/23 02:39:00;;;;;;;15.02;10.10;;;8.10;99.90;;;;;;5115681;28;20035;-69
2022/11/23 02:41:34;;;;;;;14.82;10.50;;;8.10;99.90;;;;;;5115553;28;20039;-69
2022/11/23 02:44:00;;;;;;;16.17;9.80;;;8.20;99.90;;;;;;5115412;28;20460;-69
2022/11/23 02:46:26;;;;;;;15.43;10.90;;;8.10;99.90;;;;;;5115470;28;20050;-69
2022/11/23 02:48:52;;;;;;;19.50;11.60;;;8.10;99.90;;;;;;5098518;28;20031;-69
2022/11/23 02:51:17;;;;;;;15.38;10.00;;;8.10;99.90;;;;;;5115389;28;20445;-69
2022/11/23 02:53:43;;;;;;;15.50;11.75;;;8.10;99.90;;;;;;5115305;28;20142;-69
2022/11/23 02:56:08;;;;;;;22.67;13.40;;;8.10;99.90;;;;;;5116797;28;20085;-69
2022/11/23 02:58:34;;;;;;;17.45;12.13;;;8.10;99.90;;;;;;5115487;28;20058;-69
2022/11/23 03:00:59;;;;;;;19.30;13.02;;;8.10;99.90;;;;;;5115233;28;20050;-69
2022/11/23 03:03:25;;;;;;;20.80;12.77;;;8.10;99.90;;;;;;5115051;28;20074;-69
2022/11/23 03:05:50;;;;;;;17.73;12.75;;;8.10;99.90;;;;;;5115120;28;20083;-69
2022/11/23 03:08:16;;;;;;;18.30;13.20;;;8.10;99.90;;;;;;5116748;28;20046;-69
2022/11/23 03:10:41;;;;;;;18.98;13.55;;;8.20;99.90;;;;;;5114994;28;20040;-69
2022/11/23 03:13:07;;;;;;;19.95;13.27;;;8.20;99.90;;;;;;5115175;28;20035;-69
2022/11/23 03:15:32;;;;;;;25.50;14.57;;;8.20;99.90;;;;;;5114915;28;20035;-69
2022/11/23 03:17:58;;;;;;;20.35;13.38;;;8.20;99.90;;;;;;5115146;28;20126;-69
2022/11/23 03:20:24;;;;;;;24.02;14.98;;;8.20;99.90;;;;;;5115088;28;20502;-69
2022/11/23 03:22:49;;;;;;;22.27;14.95;;;8.20;99.90;;;;;;5114725;28;20556;-69
2022/11/23 03:25:15;;;;;;;24.17;14.85;;;8.20;99.90;;;;;;5114787;28;20050;-69
2022/11/23 03:27:40;;;;;;;25.45;14.98;;;8.20;99.90;;;;;;5114613;28;20050;-69
2022/11/23 03:30:08;;;;;;;25.08;15.32;;;8.20;99.90;;;;;;5114644;28;20088;-69
2022/11/23 03:32:34;;;;;;;23.33;15.15;;;8.20;99.90;;;;;;5114534;28;20050;-69
2022/11/23 03:35:00;;;;;;;23.65;15.98;;;8.20;99.90;;;;;;5114825;28;20556;-69
2022/11/23 03:37:26;;;;;;;24.27;15.93;;;8.20;99.90;;;;;;5114172;28;20050;-69
2022/11/23 03:39:51;;;;;;;23.77;15.68;;;8.20;99.90;;;;;;5114446;28;20043;-69
2022/11/23 03:42:17;;;;;;;29.55;16.83;;;8.20;99.90;;;;;;5114197;28;20131;-69
2022/11/23 03:44:42;;;;;;;26.20;16.95;;;8.20;99.90;;;;;;5114673;28;20058;-69
2022/11/23 03:47:08;;;;;;;24.33;16.95;;;8.20;99.90;;;;;;5114347;28;20474;-69
2022/11/23 03:49:34;;;;;;;25.77;17.80;;;8.20;99.90;;;;;;5114271;28;20050;-69
2022/11/23 03:51:59;;;;;;;27.67;17.27;;;8.20;99.90;;;;;;5114118;28;20416;-69
2022/11/23 03:54:25;;;;;;;26.77;16.98;;;8.20;99.90;;;;;;5114126;28;20039;-69
2022/11/23 03:56:50;;;;;;;28.50;17.95;;;8.20;99.90;;;;;;5115399;28;20101;-69
2022/11/23 03:59:16;;;;;;;26.20;17.98;;;8.20;99.90;;;;;;5114347;28;20445;-69
2022/11/23 04:01:42;;;;;;;32.95;19.10;;;8.20;99.90;;;;;;5115279;28;20492;-69
2022/11/23 04:04:07;;;;;;;30.90;18.85;;;8.20;99.90;;;;;;5113899;28;20042;-69
2022/11/23 04:06:33;;;;;;;23.75;18.25;;;8.20;99.90;;;;;;5114225;28;20032;-69
2022/11/23 04:08:58;;;;;;;28.52;18.38;;;8.20;99.90;;;;;;5113801;28;20496;-69
2022/11/23 04:11:24;;;;;;;31.10;19.23;;;8.20;99.90;;;;;;5114080;28;20122;-69
2022/11/23 04:13:49;;;;;;;31.17;19.65;;;8.20;99.90;;;;;;5113696;28;20031;-69
2022/11/23 04:16:15;;;;;;;34.50;20.50;;;8.20;99.90;;;;;;5113709;28;20118;-69
2022/11/23 04:18:40;;;;;;;30.30;19.85;;;8.20;99.90;;;;;;5113651;28;20044;-69
2022/11/23 04:21:06;;;;;;;26.95;20.15;;;8.20;99.90;;;;;;5113649;28;20043;-69
2022/11/23 04:23:32;;;;;;;30.40;20.77;;;8.20;99.90;;;;;;5113440;28;20048;-69
2022/11/23 04:25:57;;;;;;;35.80;21.98;;;8.20;99.90;;;;;;5113541;28;20039;-69
2022/11/23 04:28:23;;;;;;;38.45;22.33;;;8.20;99.90;;;;;;5113622;28;20048;-69
2022/11/23 04:30:48;;;;;;;32.95;21.52;;;8.20;99.90;;;;;;5113414;28;20450;-69
2022/11/23 04:33:14;;;;;;;30.88;20.48;;;8.20;99.90;;;;;;5113328;28;20078;-69
2022/11/23 04:35:39;;;;;;;33.00;20.25;;;8.20;99.90;;;;;;5113320;28;20036;-69
2022/11/23 04:38:05;;;;;;;32.80;20.88;;;8.20;99.90;;;;;;5113294;28;20039;-69
2022/11/23 04:40:31;;;;;;;33.90;22.02;;;8.20;99.90;;;;;;5113473;28;20072;-69
2022/11/23 04:42:57;;;;;;;28.08;19.23;;;8.20;99.90;;;;;;5113294;28;20530;-69
2022/11/23 04:45:23;;;;;;;30.95;21.67;;;8.20;99.90;;;;;;5113421;28;20135;-69
2022/11/23 04:47:48;;;;;;;31.48;20.63;;;8.20;99.90;;;;;;5113049;28;20122;-69
2022/11/23 04:50:15;;;;;;;28.58;19.35;;;8.20;99.90;;;;;;5112435;28;20035;-69
2022/11/23 04:52:40;;;;;;;34.53;21.80;;;8.20;99.90;;;;;;5113233;28;20043;-69
2022/11/23 04:55:06;;;;;;;33.25;22.13;;;8.20;99.90;;;;;;5112997;28;20121;-69
2022/11/23 04:57:32;;;;;;;29.38;20.67;;;8.20;99.90;;;;;;5113204;28;20047;-69
2022/11/23 04:59:57;;;;;;;28.08;20.63;;;8.20;99.90;;;;;;5112874;28;20412;-69
2022/11/23 05:02:23;;;;;;;38.90;21.02;;;8.20;99.90;;;;;;5112783;28;20043;-69
2022/11/23 05:04:48;;;;;;;37.22;21.05;;;8.20;99.90;;;;;;5113219;28;20118;-69
2022/11/23 05:07:14;;;;;;;34.13;21.05;;;8.20;99.90;;;;;;5113039;28;20122;-69
2022/11/23 05:09:39;;;;;;;29.77;19.45;;;8.20;99.90;;;;;;5112682;28;20059;-69
2022/11/23 05:12:05;;;;;;;28.42;19.30;;;8.20;99.90;;;;;;5112870;28;20058;-69
2022/11/23 05:14:31;;;;;;;28.92;19.17;;;8.20;99.90;;;;;;5112970;28;20035;-69
2022/11/23 05:16:56;;;;;;;27.92;18.17;;;8.30;99.90;;;;;;5112908;28;20476;-69
2022/11/23 05:19:22;;;;;;;27.52;18.48;;;8.20;99.90;;;;;;5112579;28;20558;-69
2022/11/23 05:21:47;;;;;;;28.00;18.50;;;8.20;99.90;;;;;;5112488;28;20055;-69
2022/11/23 05:24:13;;;;;;;23.50;18.27;;;8.20;99.90;;;;;;5112800;28;20040;-69
2022/11/23 05:26:38;;;;;;;26.38;17.15;;;8.20;99.90;;;;;;5112725;28;20062;-69
2022/11/23 05:29:04;;;;;;;23.95;17.02;;;8.20;99.90;;;;;;5112348;28;20520;-69
2022/11/23 05:31:29;;;;;;;26.83;16.75;;;8.20;99.90;;;;;;5112423;28;20054;-69
2022/11/23 05:33:55;;;;;;;35.35;16.40;;;8.20;99.90;;;;;;5112929;28;20148;-69
2022/11/23 05:36:21;;;;;;;26.63;15.55;;;8.20;99.90;;;;;;5112379;28;20084;-69
2022/11/23 05:38:46;;;;;;;25.35;16.02;;;8.20;99.90;;;;;;5112407;28;20134;-69
2022/11/23 05:41:12;;;;;;;27.25;16.13;;;8.20;99.90;;;;;;5112348;28;20140;-69
2022/11/23 05:43:37;;;;;;;23.25;14.65;;;8.20;99.90;;;;;;5112043;28;20052;-69
2022/11/23 05:46:03;;;;;;;25.20;14.50;;;8.20;99.90;;;;;;5112268;28;20050;-69
2022/11/23 05:48:28;;;;;;;23.50;14.90;;;8.20;99.90;;;;;;5112456;28;20079;-69
2022/11/23 05:50:54;;;;;;;25.80;14.35;;;8.20;99.90;;;;;;5112534;28;20440;-69
2022/11/23 05:53:19;;;;;;;22.58;12.95;;;8.20;99.90;;;;;;5112147;28;20104;-69
2022/11/23 05:55:45;;;;;;;26.30;13.38;;;8.10;99.90;;;;;;5112457;28;20040;-69
2022/11/23 05:58:11;;;;;;;27.30;13.32;;;8.10;99.90;;;;;;5112182;28;20075;-69
2022/11/23 06:00:36;;;;;;;23.83;13.57;;;8.10;99.90;;;;;;5114053;28;20043;-69
2022/11/23 06:03:03;;;;;;;19.83;12.55;;;8.10;99.90;;;;;;5116294;28;20122;-69
2022/11/23 06:05:28;;;;;;;20.48;12.98;;;8.10;99.90;;;;;;5116594;28;20039;-69
2022/11/23 06:07:54;;;;;;;18.67;12.93;;;8.10;99.90;;;;;;5116159;28;20085;-69
2022/11/23 06:10:20;;;;;;;20.63;12.43;;;8.10;99.90;;;;;;5116390;28;20044;-69
2022/11/23 06:12:45;;;;;;;20.63;12.15;;;8.10;99.90;;;;;;5116054;28;20051;-69
2022/11/23 06:15:11;;;;;;;22.80;12.23;;;8.10;99.90;;;;;;5116124;28;20046;-69
2022/11/23 06:17:37;;;;;;;22.33;11.52;;;8.10;99.90;;;;;;5116078;28;20036;-69
2022/11/23 06:20:07;;;;;;;23.48;10.95;;;8.00;99.90;;;;;;5115970;28;20039;-69
2022/11/23 06:22:33;;;;;;;18.90;10.57;;;8.00;99.90;;;;;;5116625;28;20392;-69
2022/11/23 06:24:58;;;;;;;20.00;11.20;;;8.00;99.90;;;;;;5116134;28;20052;-69
2022/11/23 06:27:24;;;;;;;21.33;10.23;;;8.00;99.90;;;;;;5115873;28;20048;-69
2022/11/23 06:29:49;;;;;;;16.52;10.23;;;8.00;99.90;;;;;;5115743;28;20046;-69
2022/11/23 06:32:15;;;;;;;19.65;10.25;;;8.00;99.90;;;;;;5116023;28;20096;-69
2022/11/23 06:34:41;;;;;;;16.45;10.05;;;8.00;99.90;;;;;;5115961;28;20035;-69
2022/11/23 06:37:06;;;;;;;17.13;9.25;;;8.00;99.90;;;;;;5115715;28;20036;-69
2022/11/23 06:39:32;;;;;;;23.50;9.77;;;8.00;99.90;;;;;;5115635;28;20043;-69
2022/11/23 06:41:57;;;;;;;21.38;9.57;;;8.00;99.90;;;;;;5115379;28;20044;-69
2022/11/23 06:44:23;;;;;;;18.17;9.73;;;8.00;99.90;;;;;;5115594;28;20108;-69
2022/11/23 06:46:48;;;;;;;17.50;9.77;;;8.00;99.90;;;;;;5115474;28;20047;-69
2022/11/23 06:49:14;;;;;;;22.17;9.90;;;8.00;99.90;;;;;;5115392;28;20051;-69
2022/11/23 06:51:40;;;;;;;20.60;9.63;;;8.00;99.90;;;;;;5115425;28;20035;-69
2022/11/23 06:54:05;;;;;;;19.15;8.95;;;8.00;99.90;;;;;;5115328;28;20039;-70
2022/11/23 06:56:31;;;;;;;16.38;8.40;;;8.00;99.90;;;;;;5115312;28;20040;-69
2022/11/23 06:58:57;;;;;;;20.30;8.25;;;8.00;99.90;;;;;;5115507;28;20091;-69
2022/11/23 07:01:22;;;;;;;19.00;8.73;;;8.00;99.90;;;;;;5115440;28;20047;-69
2022/11/23 07:03:48;;;;;;;19.63;8.60;;;8.00;99.90;;;;;;5115108;28;20043;-69
2022/11/23 07:06:13;;;;;;;22.17;8.70;;;8.00;99.90;;;;;;5115402;28;20050;-69
2022/11/23 07:08:42;;;;;;;19.63;8.05;;;8.00;99.90;;;;;;5115236;28;20047;-68
2022/11/23 07:11:09;;;;;;;18.85;7.68;;;8.00;99.90;;;;;;5114941;28;20039;-69
2022/11/23 07:13:35;;;;;;;15.68;6.97;;;8.00;99.90;;;;;;5114416;28;20119;-69
2022/11/23 07:16:01;;;;;;;15.73;7.10;;;8.00;99.90;;;;;;5115377;28;20117;-69
2022/11/23 07:18:29;;;;;;;14.00;7.13;;;8.00;99.90;;;;;;5116765;28;20550;-69
2022/11/23 07:20:58;;;;;;;14.95;6.97;;;8.00;99.90;;;;;;5115085;28;20062;-69
2022/11/23 07:23:23;;;;;;;19.80;7.90;;;8.00;99.90;;;;;;5114994;28;20136;-69
2022/11/23 07:25:49;;;;;;;20.58;6.72;;;8.00;99.90;;;;;;5115006;28;20512;-69
2022/11/23 07:28:15;;;;;;;15.65;6.45;;;8.00;99.90;;;;;;5114911;28;20043;-69
2022/11/23 07:30:41;;;;;;;15.07;6.40;;;8.00;99.90;;;;;;5114718;28;20050;-69
2022/11/23 07:33:09;;;;;;;14.98;6.22;;;8.00;99.90;;;;;;5114749;28;20118;-69
2022/11/23 07:35:35;;;;;;;13.05;6.60;;;8.00;99.90;;;;;;5114551;28;20040;-69
2022/11/23 07:38:02;;;;;;;15.35;6.05;;;8.00;99.90;;;;;;5114573;28;20493;-69
2022/11/23 07:40:28;;;;;;;14.38;6.07;;;8.00;99.90;;;;;;5114800;28;20040;-69
2022/11/23 07:42:59;;;;;;;15.75;5.72;;;8.00;99.90;;;;;;5114261;28;20089;-68
2022/11/23 07:45:25;;;;;;;16.27;5.75;;;8.00;99.90;;;;;;5114656;28;20048;-73
2022/11/23 07:48:01;;;;;;;17.30;6.05;;;8.00;99.90;;;;;;5114237;28;20518;-69
2022/11/23 07:50:27;;;;;;;20.95;6.07;;;8.00;99.90;;;;;;5114335;28;20067;-69
2022/11/23 07:52:53;;;;;;;18.75;6.32;;;8.00;99.90;;;;;;5114167;28;20107;-69
2022/11/23 07:55:19;;;;;;;15.57;5.63;;;8.00;99.90;;;;;;5114431;28;20123;-69
2022/11/23 07:57:44;;;;;;;14.85;6.28;;;8.00;99.90;;;;;;5114428;28;20473;-69
2022/11/23 08:00:11;;;;;;;15.38;5.10;;;8.00;99.90;;;;;;5114109;28;20081;-69
2022/11/23 08:02:37;;;;;;;13.93;5.25;;;8.00;99.90;;;;;;5097215;28;20040;-69
2022/11/23 08:05:03;;;;;;;17.75;5.32;;;8.10;99.90;;;;;;5114253;28;20048;-69
2022/11/23 08:07:29;;;;;;;12.85;4.78;;;8.10;99.90;;;;;;5114001;28;20048;-69
2022/11/23 08:09:54;;;;;;;15.00;5.60;;;8.10;99.90;;;;;;5113847;28;20047;-69
2022/11/23 08:12:20;;;;;;;17.27;5.82;;;8.10;99.90;;;;;;5113753;28;20032;-69
2022/11/23 08:14:46;;;;;;;15.90;5.43;;;8.10;99.90;;;;;;5113811;28;20043;-69
2022/11/23 08:17:11;;;;;;;15.82;5.65;;;8.10;99.90;;;;;;5113763;28;20110;-69
2022/11/23 08:19:37;;;;;;;16.75;5.00;;;8.10;99.90;;;;;;5113964;28;20143;-69
2022/11/23 08:22:02;;;;;;;16.85;5.32;;;8.10;99.90;;;;;;5113603;28;20466;-69
2022/11/23 08:24:28;;;;;;;16.75;4.85;;;8.10;99.90;;;;;;5112577;28;20085;-69
2022/11/23 08:26:53;;;;;;;16.42;4.85;;;8.10;99.90;;;;;;5113584;28;20081;-69
2022/11/23 08:29:19;;;;;;;14.55;4.45;;;8.10;99.90;;;;;;5113455;28;20408;-69
2022/11/23 08:31:45;;;;;;;16.65;5.28;;;8.10;99.90;;;;;;5113352;28;20044;-69
2022/11/23 08:34:10;;;;;;;16.33;5.00;;;8.20;99.90;;;;;;5113323;28;20039;-69
2022/11/23 08:36:36;;;;;;;20.55;6.43;;;8.20;99.90;;;;;;5113644;28;20039;-69
2022/11/23 08:39:02;;;;;;;16.17;5.03;;;8.20;99.90;;;;;;5113314;28;20477;-69
2022/11/23 08:41:27;;;;;;;20.50;4.90;;;8.30;99.90;;;;;;5113253;28;20043;-69
2022/11/23 08:43:53;;;;;;;15.63;4.68;;;8.30;99.90;;;;;;5113047;28;20047;-69
2022/11/23 08:46:25;;;;;;;19.35;5.68;;;8.30;99.90;;;;;;5090809;28;20411;-67
2022/11/23 08:48:50;;;;;;;16.75;5.10;;;8.40;99.90;;;;;;5089411;28;20040;-67
2022/11/23 08:51:21;;;;;;;15.82;4.70;;;8.40;99.90;;;;;;5089367;28;20044;-67
2022/11/23 08:53:49;;;;;;;16.30;4.80;;;8.40;99.90;;;;;;5089299;28;20051;-67
2022/11/23 08:56:16;;;;;;;16.38;4.65;;;8.40;99.90;;;;;;5089289;28;20048;-67
2022/11/23 08:58:41;;;;;;;15.75;4.60;;;8.50;99.90;;;;;;5090453;28;20085;-67
2022/11/23 09:01:11;;;;;;;16.30;5.07;;;8.50;99.90;;;;;;5089149;28;20036;-67
2022/11/23 09:03:37;;;;;;;15.95;4.75;;;8.50;99.90;;;;;;5089006;28;20051;-67
2022/11/23 09:06:03;;;;;;;15.65;4.53;;;8.60;99.90;;;;;;5088999;28;20055;-67
2022/11/23 09:08:29;;;;;;;16.10;4.97;;;8.60;99.90;;;;;;5090878;28;20607;-67
2022/11/23 09:10:59;;;;;;;19.35;4.53;;;8.60;99.90;;;;;;5089002;28;20047;-67
2022/11/23 09:13:25;;;;;;;16.13;4.55;;;8.60;99.90;;;;;;5088922;28;20115;-67
2022/11/23 09:15:50;;;;;;;18.13;5.15;;;8.60;99.90;;;;;;5088910;28;20170;-67
2022/11/23 09:18:16;;;;;;;18.75;4.72;;;8.60;99.90;;;;;;5089115;28;20048;-67
2022/11/23 09:20:41;;;;;;;16.88;4.63;;;8.60;99.90;;;;;;5090362;28;20044;-67
2022/11/23 09:23:08;;;;;;;20.08;5.18;;;8.60;99.90;;;;;;5071849;28;20051;-67
2022/11/23 09:25:34;;;;;;;14.80;4.68;;;8.60;99.90;;;;;;5088580;28;20059;-67
2022/11/23 09:27:59;;;;;;;18.63;5.32;;;8.70;99.90;;;;;;5088684;28;20036;-67
2022/11/23 09:30:26;;;;;;;18.38;4.55;;;8.60;99.90;;;;;;5088913;28;20036;-67
2022/11/23 09:32:55;;;;;;;17.67;4.70;;;8.70;99.90;;;;;;5088526;28;20040;-67
2022/11/23 09:35:21;;;;;;;14.25;4.50;;;8.70;99.90;;;;;;5088504;28;20040;-67
2022/11/23 09:37:46;;;;;;;19.60;4.85;;;8.70;99.90;;;;;;5088746;28;20101;-67
2022/11/23 09:40:16;;;;;;;19.92;4.80;;;8.70;99.90;;;;;;5088712;28;20048;-67
2022/11/23 09:43:08;;;;;;;14.82;4.20;;;8.80;99.90;;;;;;5088331;28;20083;-67
2022/11/23 09:45:45;;;;;;;16.40;4.18;;;8.80;99.90;;;;;;5088167;28;20040;-67
2022/11/23 09:48:26;;;;;;;18.33;4.35;;;8.80;99.90;;;;;;5088327;28;20040;-67
2022/11/23 09:51:00;;;;;;;17.80;4.70;;;8.80;99.90;;;;;;5088238;28;20044;-67
2022/11/23 09:53:38;;;;;;;24.98;4.80;;;8.80;99.90;;;;;;5088182;28;20493;-67
2022/11/23 09:56:11;;;;;;;15.65;4.35;;;8.80;99.90;;;;;;5084576;28;20075;-67
2022/11/23 09:58:39;;;;;;;17.53;4.43;;;8.80;99.90;;;;;;5074892;28;20475;-67
2022/11/23 10:01:14;;;;;;;19.20;4.35;;;8.80;99.90;;;;;;5074574;28;20080;-67
2022/11/23 10:03:42;;;;;;;15.45;3.97;;;8.80;99.90;;;;;;5074392;28;20044;-67
2022/11/23 10:06:21;;;;;;;19.92;4.50;;;8.80;99.90;;;;;;5074399;28;20051;-67
2022/11/23 10:09:17;;;;;;;20.58;4.07;;;8.90;99.90;;;;;;5074457;28;20447;-67
2022/11/23 10:12:08;;;;;;;16.67;4.65;;;8.90;99.90;;;;;;5075123;28;20043;-67
2022/11/23 10:14:34;;;;;;;15.77;3.42;;;8.90;99.90;;;;;;5074351;28;20413;-67
2022/11/23 10:17:17;;;;;;;18.98;3.47;;;8.90;99.90;;;;;;5074357;28;20044;-67
2022/11/23 10:20:38;;;;;;;18.30;3.42;;;8.90;99.90;;;;;;5074293;28;20040;-67
2022/11/23 10:23:12;;;;;;;12.55;3.20;;;8.90;99.90;;;;;;5036535;28;20041;-67
2022/11/23 10:25:49;;;;;;;16.58;3.53;;;8.90;99.90;;;;;;5036543;28;20127;-67
2022/11/23 10:28:19;;;;;;;16.95;3.35;;;8.90;99.90;;;;;;5036685;28;20418;-67
2022/11/23 10:31:00;;;;;;;17.83;3.97;;;8.80;99.90;;;;;;5036555;28;20048;-67
2022/11/23 10:33:30;;;;;;;19.35;4.05;;;8.90;99.90;;;;;;5036445;28;20055;-67
2022/11/23 10:35:56;;;;;;;17.52;3.78;;;8.80;99.90;;;;;;5036485;28;20047;-67
2022/11/23 10:38:26;;;;;;;15.60;3.70;;;8.80;99.90;;;;;;5036650;28;20127;-67
2022/11/23 10:41:01;;;;;;;17.25;3.22;;;8.90;99.90;;;;;;5036411;28;20049;-67
2022/11/23 10:43:47;;;;;;;20.05;3.88;;;8.80;99.90;;;;;;5036203;28;20060;-67
2022/11/23 10:46:22;;;;;;;16.80;3.70;;;8.80;99.90;;;;;;5036016;28;20055;-67
2022/11/23 10:48:48;;;;;;;18.27;4.22;;;8.90;99.90;;;;;;5036350;28;20606;-67
2022/11/23 10:51:32;;;;;;;21.15;3.95;;;8.90;99.90;;;;;;5036119;28;20044;-67
2022/11/23 10:54:02;;;;;;;16.08;3.50;;;8.90;99.90;;;;;;5055971;28;20081;-69
2022/11/23 10:56:28;;;;;;;19.45;3.92;;;8.90;99.90;;;;;;5073507;28;20529;-69
2022/11/23 10:58:54;;;;;;;20.50;3.33;;;9.00;99.90;;;;;;5073494;28;20043;-69
2022/11/23 11:01:24;;;;;;;17.33;3.90;;;9.00;99.90;;;;;;5073453;28;20116;-69
2022/11/23 11:03:55;;;;;;;16.45;3.22;;;9.00;99.90;;;;;;5073314;28;20513;-69
2022/11/23 11:06:29;;;;;;;18.13;3.47;;;9.10;99.90;;;;;;5073279;28;20044;-69
2022/11/23 11:09:00;;;;;;;15.50;2.75;;;9.20;99.90;;;;;;5072299;28;20032;-69
2022/11/23 11:11:35;;;;;;;18.27;3.60;;;9.40;99.90;;;;;;5073485;28;20401;-69
2022/11/23 11:14:08;;;;;;;19.23;4.03;;;9.50;99.90;;;;;;5073185;28;20036;-69
2022/11/23 11:16:36;;;;;;;15.60;3.20;;;9.70;99.90;;;;;;5073149;28;20041;-69
2022/11/23 11:19:27;;;;;;;15.75;3.67;;;10.00;99.90;;;;;;5073902;28;20036;-69
2022/11/23 11:21:53;;;;;;;15.80;3.22;;;10.20;99.90;;;;;;5072921;28;20119;-69
2022/11/23 11:24:25;;;;;;;15.00;3.08;;;10.30;99.90;;;;;;5072876;28;20037;-69
2022/11/23 11:26:56;;;;;;;16.20;2.95;;;10.50;99.90;;;;;;5072956;28;20045;-69
2022/11/23 11:29:38;;;;;;;15.50;3.30;;;10.60;99.90;;;;;;5072851;28;20423;-69
2022/11/23 11:32:25;;;;;;;18.52;3.17;;;10.70;99.90;;;;;;5072844;28;20044;-69
2022/11/23 11:35:00;;;;;;;9.70;2.60;;;10.80;99.90;;;;;;5072791;28;20120;-69
2022/11/23 11:37:36;;;;;;;16.38;3.83;;;10.80;99.90;;;;;;5073007;28;20055;-69
2022/11/23 11:40:13;;;;;;;11.85;2.60;;;11.10;99.90;;;;;;5072904;28;20509;-69
2022/11/23 11:43:06;;;;;;;13.18;3.53;;;11.40;99.90;;;;;;5073700;28;20048;-69
2022/11/23 11:45:56;;;;;;;15.77;3.47;;;11.80;99.90;;;;;;5072413;28;20040;-69
2022/11/23 11:48:29;;;;;;;11.35;2.45;;;11.80;99.90;;;;;;5053996;28;20080;-69
2022/11/23 11:51:07;;;;;;;;;;;11.50;99.90;;;;;;5072933;28;20417;-69
2022/11/23 11:53:44;;;;;;;14.40;2.85;;;11.30;99.90;;;;;;5072281;28;20270;-69
2022/11/23 11:56:42;;;;;;;14.48;2.90;;;11.10;99.90;;;;;;5072690;28;20071;-69
2022/11/23 11:59:57;;;;;;;12.00;3.00;;;11.10;99.90;;;;;;5055678;28;20508;-69
2022/11/23 12:02:25;;;;;;;16.10;3.15;;;10.90;99.90;;;;;;5035037;28;20072;-69
2022/11/23 12:04:55;;;;;;;16.02;2.88;;;10.90;99.90;;;;;;5034680;28;20045;-69
2022/11/23 12:07:31;;;;;;;13.60;2.42;;;11.00;99.90;;;;;;5035176;28;20183;-69
2022/11/23 12:10:12;;;;;;;11.73;2.83;;;11.60;99.90;;;;;;5034717;28;20041;-69
2022/11/23 12:12:38;;;;;;;14.48;2.42;;;13.30;99.90;;;;;;5018028;28;20118;-69
2022/11/23 12:15:05;;;;;;;13.90;2.22;;;15.20;99.90;;;;;;5034861;28;20041;-69
2022/11/23 12:17:37;;;;;;;11.32;2.72;;;16.50;99.90;;;;;;5034928;28;20560;-75
2022/11/23 12:20:29;;;;;;;10.10;2.50;;;17.50;97.70;;;;;;5034333;28;20056;-69
2022/11/23 12:23:20;;;;;;;14.93;2.33;;;18.40;94.60;;;;;;5034444;28;20537;-69
2022/11/23 12:25:55;;;;;;;10.27;2.15;;;19.30;92.30;;;;;;5034453;28;20053;-69
2022/11/23 12:28:55;;;;;;;11.82;2.35;;;19.90;87.40;;;;;;5034420;28;20067;-70
2022/11/23 12:31:38;;;;;;;11.68;2.30;;;20.20;80.70;;;;;;5034258;28;20045;-69
2022/11/23 12:34:34;;;;;;;12.50;2.22;;;19.20;82.30;;;;;;5034426;28;20040;-69
2022/11/23 12:37:37;;;;;;;11.48;2.65;;;18.30;82.90;;;;;;5033891;28;20510;-69
2022/11/23 12:40:39;;;;;;;10.10;2.42;;;17.50;82.20;;;;;;5071990;28;20032;-69
2022/11/23 12:43:13;;;;;;;10.52;2.58;;;16.30;86.80;;;;;;5071588;28;20115;-69
2022/11/23 12:45:45;;;;;;;13.85;2.42;;;15.10;89.20;;;;;;5070688;28;20416;-69
2022/11/23 12:48:22;;;;;;;12.57;2.57;;;14.30;91.30;;;;;;5072007;28;20041;-69
2022/11/23 12:51:22;;;;;;;12.60;2.00;;;13.60;91.80;;;;;;5071988;28;20036;-69
2022/11/23 12:54:09;;;;;;;9.68;2.53;;;13.10;92.20;;;;;;5055132;28;20058;-69
2022/11/23 12:56:55;;;;;;;10.75;2.40;;;12.80;94.30;;;;;;5071644;28;20040;-69